Flight Track Log - Related Links

Times and Time Zones

All times are in EDT time to prevent confusion due to time zone crossing. See the LYM3612 flight status page for this flight to view local times or setup timezone preferences in your user account.

Time Position Orientation Groundspeed Altitude Reporting Facility
EDT Latitude Longitude Course Direction KTS MPH feet Rate Location/Type
Wed 08:51:14 AM 39.8500 -104.7500 288° West 183 211 8,000  Level Denver TRACON
Wed 08:52:14 AM 39.8667 -104.8167 288° West 191 220 9,300 1,309 Climbing Denver TRACON
Wed 08:53:04 AM 39.9042 -104.8369 337° Northwest 190 219 10,400 1,297 Climbing Denver Center
Wed 08:54:05 AM 39.9575 -104.8392 358° North 191 220 11,700 1,230 Climbing Denver Center
Wed 08:55:06 AM 40.0122 -104.8417 358° North 196 226 12,900 1,180 Climbing Denver Center
Wed 08:56:07 AM 40.0717 -104.8464 357° North 199 229 14,100 1,082 Climbing Denver Center
Wed 08:57:08 AM 40.1294 -104.8519 356° North 206 237 15,100 984 Climbing Denver Center
Wed 08:58:09 AM 40.1883 -104.8631 352° North 212 244 16,100 934 Climbing Denver Center
Wed 08:59:10 AM 40.2475 -104.8817 346° North 219 252 17,000 787 Climbing Denver Center
Wed 09:00:11 AM 40.2969 -104.9022 342° North 224 258 17,700 639 Climbing Denver Center
Wed 09:01:12 AM 40.3681 -104.9381 339° North 224 258 18,300 590 Climbing Denver Center
Wed 09:02:13 AM 40.4281 -104.9633 342° North 224 258 18,900 590 Climbing Denver Center
Wed 09:03:14 AM 40.4906 -104.9833 346° North 229 264 19,500 541 Climbing Denver Center
Wed 09:04:15 AM 40.5503 -105.0092 342° North 226 260 20,000 246 Climbing Denver Center
Wed 09:05:16 AM 40.6214 -105.0261 350° North 242 278 20,000 49 Level Denver Center
Wed 09:06:17 AM 40.6900 -105.0503 345° North 256 295 20,100  Climbing Denver Center
Wed 09:07:19 AM 40.7644 -105.0653 351° North 259 298 20,000 -49 Descending Denver Center
Wed 09:08:20 AM 40.8328 -105.1078 335° Northwest 267 307 20,000  Level Denver Center
Wed 09:09:21 AM 40.9028 -105.1489 336° Northwest 272 313 20,000 -98 Level Denver Center
Wed 09:10:22 AM 40.9714 -105.2008 330° Northwest 279 321 19,800  Descending Denver Center
Wed 09:11:23 AM 41.0439 -105.2436 336° Northwest 277 319 20,000 98 Climbing Denver Center
Wed 09:12:24 AM 41.1117 -105.2758 340° North 274 315 20,000  Level Denver Center
Wed 09:13:25 AM 41.1769 -105.3136 336° Northwest 268 308 20,000  Level Denver Center
Wed 09:14:26 AM 41.2533 -105.3592 336° Northwest 269 310 20,000  Level Denver Center
Wed 09:15:27 AM 41.3178 -105.3967 336° Northwest 267 307 20,000  Level Denver Center
Wed 09:16:28 AM 41.3947 -105.4394 337° Northwest 269 310 20,000  Level Denver Center
Wed 09:17:41 AM 41.4581 -105.4831 333° Northwest 268 308 20,000  Level Denver Center
Wed 09:18:42 AM 41.5414 -105.5403 333° Northwest 265 305 20,000  Level Denver Center
Wed 09:19:43 AM 41.6036 -105.5822 333° Northwest 262 302 20,000  Level Denver Center
Wed 09:20:44 AM 41.6686 -105.6242 334° Northwest 268 308 20,000  Level Denver Center
Wed 09:21:45 AM 41.7414 -105.6769 332° Northwest 268 308 20,000 98 Level Denver Center
Wed 09:22:46 AM 41.8056 -105.7181 334° Northwest 267 307 20,200 -49 Climbing Denver Center
Wed 09:23:47 AM 41.8703 -105.7603 334° Northwest 270 311 19,900 -443 Descending Denver Center
Wed 09:24:48 AM 41.9489 -105.8053 337° Northwest 272 313 19,300 -541 Descending Denver Center
Wed 09:25:49 AM 42.0181 -105.8489 335° Northwest 278 320 18,800 -934 Descending Denver Center
Wed 09:26:50 AM 42.0906 -105.8917 336° Northwest 285 328 17,400 -1,180 Descending Denver Center
Wed 09:27:51 AM 42.1814 -105.9450 336° Northwest 300 345 16,400 -836 Descending Denver Center
Wed 09:28:52 AM 42.2581 -105.9997 332° Northwest 313 360 15,700 -639 Descending Denver Center
Wed 09:29:53 AM 42.3300 -106.0494 333° Northwest 310 357 15,100 -344 Descending Denver Center
Wed 09:30:54 AM 42.3894 -106.0878 335° Northwest 304 350 15,000 -49 Descending Denver Center
Wed 09:31:55 AM 42.4831 -106.1519 333° Northwest 298 343 15,000  Level Denver Center
Wed 09:32:56 AM 42.5497 -106.2022 331° Northwest 293 337 15,000 -492 Level Denver Center
Wed 09:33:57 AM 42.6306 -106.2611 332° Northwest 293 337 14,000 -1,279 Descending Denver Center
Wed 09:34:58 AM 42.7061 -106.2931 343° North 310 357 12,400 -1,820 Descending Denver Center
Wed 09:35:59 AM 42.7775 -106.3375 335° Northwest 297 342 10,300 -2,508 Descending Denver Center
Wed 09:37:00 AM 42.8606 -106.3808 339° North 289 333 7,300 -1,770 Descending Denver Center
Wed 09:38:01 AM 42.9269 -106.4111 342° North 281 323 6,700 -295 Descending Denver Center
Wed 09:39:02 AM 42.9881 -106.4389 342° North 276 318 6,700  Level Denver Center
Wed 09:41:00 AM 42.9080 -106.4644 193° South  Level Estimated
Wed 09:48:00 AM 42.9080 -106.4644 90° East  Level Estimated

Login

Don't have an account? Register now (free) for customized features, flight alerts, and more!